createdAt,value
2023-02-04T00:01:20.392Z,81.12
2023-02-04T00:03:46.881Z,80.97
2023-02-04T00:06:13.356Z,81.24
2023-02-04T00:08:39.976Z,80.51
2023-02-04T00:11:06.457Z,79.62
2023-02-04T00:13:32.924Z,80.35
2023-02-04T00:15:59.526Z,80.38
2023-02-04T00:18:26.231Z,80.33
2023-02-04T00:20:52.801Z,80.50
2023-02-04T00:23:19.238Z,80.04
2023-02-04T00:25:45.714Z,79.52
2023-02-04T00:28:12.212Z,79.53
2023-02-04T00:30:38.689Z,79.64
2023-02-04T00:33:05.120Z,79.32
2023-02-04T00:35:31.706Z,79.28
2023-02-04T00:37:58.206Z,79.66
2023-02-04T00:40:24.661Z,79.52
2023-02-04T00:42:51.202Z,80.19
2023-02-04T00:45:17.650Z,80.06
2023-02-04T00:47:44.112Z,79.42
2023-02-04T00:50:10.593Z,79.58
2023-02-04T00:52:37.061Z,79.62
2023-02-04T00:55:03.633Z,79.36
2023-02-04T00:57:30.164Z,79.57
2023-02-04T00:59:56.594Z,79.86
2023-02-04T01:02:23.048Z,79.87
2023-02-04T01:04:49.527Z,79.97
2023-02-04T01:07:16.046Z,79.43
2023-02-04T01:09:42.553Z,79.18
2023-02-04T01:12:22.416Z,79.77
2023-02-04T01:14:49.146Z,79.10
2023-02-04T01:17:15.606Z,79.31
2023-02-04T01:19:42.197Z,79.93
2023-02-04T01:22:08.657Z,80.16
2023-02-04T01:24:35.189Z,79.92
2023-02-04T01:27:01.648Z,80.24
2023-02-04T01:29:28.077Z,79.77
2023-02-04T01:31:54.650Z,79.65
2023-02-04T01:34:21.171Z,80.01
2023-02-04T01:36:47.633Z,79.54
2023-02-04T01:39:14.129Z,80.36
2023-02-04T01:41:40.592Z,79.74
2023-02-04T01:44:07.044Z,79.63
2023-02-04T01:46:35.802Z,79.83
2023-02-04T01:49:04.167Z,80.62
2023-02-04T01:54:59.280Z,80.29
2023-02-04T01:57:25.831Z,80.49
2023-02-04T01:59:53.025Z,80.96
2023-02-04T02:02:38.712Z,81.42
2023-02-04T02:05:05.551Z,81.09
2023-02-04T02:07:31.995Z,81.41
2023-02-04T02:09:58.497Z,81.29
2023-02-04T02:12:24.972Z,81.32
2023-02-04T02:14:51.413Z,81.39
2023-02-04T02:17:17.889Z,81.51
2023-02-04T02:19:44.381Z,80.94
2023-02-04T02:22:16.976Z,81.47
2023-02-04T02:24:43.492Z,81.09
2023-02-04T02:27:10.448Z,81.43
2023-02-04T02:29:37.543Z,81.81
2023-02-04T02:32:04.049Z,81.66
2023-02-04T02:34:30.759Z,82.11
2023-02-04T02:36:57.837Z,82.09
2023-02-04T02:39:24.367Z,81.59
2023-02-04T02:41:50.847Z,81.28
2023-02-04T02:44:17.308Z,81.29
2023-02-04T02:46:43.867Z,81.02
2023-02-04T02:49:15.029Z,81.02
2023-02-04T02:51:41.792Z,81.53
2023-02-04T02:54:12.556Z,81.87
2023-02-04T02:56:39.010Z,79.38
2023-02-04T02:59:15.553Z,78.64
2023-02-04T03:01:42.150Z,77.90
2023-02-04T03:04:08.624Z,78.02
2023-02-04T03:10:03.683Z,78.92
2023-02-04T03:12:30.231Z,79.09
2023-02-04T03:14:56.675Z,78.79
2023-02-04T03:17:23.176Z,79.17
2023-02-04T03:19:49.640Z,79.47
2023-02-04T03:22:16.129Z,80.09
2023-02-04T03:24:42.586Z,79.70
2023-02-04T03:27:09.151Z,79.62
2023-02-04T03:29:40.776Z,79.02
2023-02-04T03:32:07.221Z,79.25
2023-02-04T03:34:33.703Z,79.20
2023-02-04T03:37:00.190Z,78.48
2023-02-04T03:39:26.641Z,78.32
2023-02-04T03:41:53.114Z,78.43
2023-02-04T03:44:19.711Z,78.36
2023-02-04T03:46:46.182Z,78.16
2023-02-04T03:49:12.799Z,77.34
2023-02-04T03:51:39.271Z,77.06
2023-02-04T03:54:05.699Z,76.66
2023-02-04T03:56:32.163Z,75.60
2023-02-04T03:58:58.618Z,76.07
2023-02-04T04:01:25.176Z,75.97
2023-02-04T04:03:51.678Z,75.24
2023-02-04T04:06:18.178Z,75.59
2023-02-04T04:08:44.705Z,74.99
2023-02-04T04:11:11.757Z,75.79
2023-02-04T04:13:38.220Z,77.38
2023-02-04T04:16:05.157Z,79.07
2023-02-04T04:18:32.922Z,80.63
2023-02-04T04:20:59.599Z,79.86
2023-02-04T04:23:26.117Z,77.87
2023-02-04T04:25:52.651Z,76.23
2023-02-04T04:28:19.221Z,76.23
2023-02-04T04:30:45.814Z,75.86
2023-02-04T04:33:12.417Z,76.72
2023-02-04T04:35:39.020Z,76.47
2023-02-04T04:38:05.531Z,78.71
2023-02-04T04:40:32.321Z,78.98
2023-02-04T04:42:58.963Z,79.68
2023-02-04T04:45:25.426Z,79.16
2023-02-04T04:47:51.892Z,78.02
2023-02-04T04:50:18.408Z,77.98
2023-02-04T04:52:44.867Z,76.31
2023-02-04T04:55:11.342Z,77.25
2023-02-04T04:57:37.888Z,77.47
2023-02-04T05:00:05.122Z,77.78
2023-02-04T05:02:31.817Z,77.38
2023-02-04T05:04:58.360Z,77.59
2023-02-04T05:07:24.815Z,76.76
2023-02-04T05:09:51.297Z,76.98
2023-02-04T05:12:17.740Z,76.79
2023-02-04T05:14:44.238Z,78.97
2023-02-04T05:17:10.714Z,78.33
2023-02-04T05:19:37.225Z,78.46
2023-02-04T05:22:03.697Z,77.43
2023-02-04T05:24:30.168Z,76.90
2023-02-04T05:26:56.656Z,76.26
2023-02-04T05:29:23.140Z,76.51
2023-02-04T05:31:49.682Z,76.56
2023-02-04T05:34:16.185Z,76.32
2023-02-04T05:36:42.632Z,76.87
2023-02-04T05:39:09.161Z,75.97
2023-02-04T05:41:35.614Z,76.45
2023-02-04T05:44:02.365Z,76.40
2023-02-04T05:46:28.844Z,76.24
2023-02-04T05:48:55.355Z,76.12
2023-02-04T05:51:21.844Z,75.75
2023-02-04T05:53:48.333Z,77.31
2023-02-04T05:56:14.821Z,76.98
2023-02-04T05:58:41.260Z,76.58
2023-02-04T06:01:07.793Z,76.12
2023-02-04T06:03:57.072Z,76.70
2023-02-04T06:06:23.642Z,75.39
2023-02-04T06:08:50.137Z,74.55
2023-02-04T06:11:16.571Z,74.77
2023-02-04T06:13:43.076Z,74.02
2023-02-04T06:16:09.633Z,74.43
2023-02-04T06:18:36.205Z,75.20
2023-02-04T06:21:04.781Z,74.79
2023-02-04T06:23:31.901Z,74.56
2023-02-04T06:25:58.338Z,74.52
2023-02-04T06:28:55.098Z,75.19
2023-02-04T06:31:21.638Z,74.66
2023-02-04T06:33:48.206Z,74.63
2023-02-04T06:36:14.924Z,74.08
2023-02-04T06:38:41.524Z,73.82
2023-02-04T06:41:16.299Z,73.20
2023-02-04T06:43:42.797Z,74.05
2023-02-04T06:46:09.325Z,74.55
2023-02-04T06:48:35.865Z,74.16
2023-02-04T06:51:02.318Z,74.51
2023-02-04T06:53:28.759Z,75.08
2023-02-04T06:55:55.291Z,76.10
2023-02-04T06:58:21.856Z,76.28
2023-02-04T07:00:48.331Z,75.72
2023-02-04T07:03:14.836Z,79.11
2023-02-04T07:05:41.424Z,78.79
2023-02-04T07:08:07.915Z,78.26
2023-02-04T07:10:34.655Z,78.41
2023-02-04T07:13:01.265Z,78.72
2023-02-04T07:15:27.809Z,79.01
2023-02-04T07:17:54.422Z,78.34
2023-02-04T07:20:20.899Z,78.46
2023-02-04T07:22:47.437Z,78.03
2023-02-04T07:25:16.117Z,78.53
2023-02-04T07:27:42.667Z,78.34
2023-02-04T07:30:09.904Z,77.86
2023-02-04T07:32:36.503Z,76.98
2023-02-04T07:35:03.001Z,78.73
2023-02-04T07:37:31.120Z,78.77
2023-02-04T07:39:57.711Z,77.59
2023-02-04T07:42:25.063Z,78.06
2023-02-04T07:44:51.542Z,79.79
2023-02-04T07:47:19.062Z,78.89
2023-02-04T07:49:45.513Z,78.37
2023-02-04T07:52:12.480Z,77.74
2023-02-04T07:54:38.974Z,77.29
2023-02-04T07:57:05.424Z,75.09
2023-02-04T07:59:31.880Z,75.52
2023-02-04T08:01:58.465Z,74.53
2023-02-04T08:04:24.986Z,74.67
2023-02-04T08:10:21.505Z,73.94
2023-02-04T08:12:47.966Z,74.17
2023-02-04T08:15:14.425Z,75.18
2023-02-04T08:17:40.889Z,74.23
2023-02-04T08:20:09.317Z,74.88
2023-02-04T08:22:35.844Z,75.98
2023-02-04T08:25:02.945Z,77.40
2023-02-04T08:27:29.452Z,76.23
2023-02-04T08:29:55.889Z,76.19
2023-02-04T08:32:22.424Z,76.16
2023-02-04T08:34:49.122Z,75.75
2023-02-04T08:37:15.765Z,76.26
2023-02-04T08:39:46.375Z,76.69
2023-02-04T08:42:13.351Z,77.15
2023-02-04T08:44:39.871Z,78.00
2023-02-04T08:47:06.355Z,77.21
2023-02-04T08:49:32.876Z,76.73
2023-02-04T08:55:20.731Z,77.17
2023-02-04T08:57:47.164Z,76.83
2023-02-04T09:00:13.892Z,77.31
2023-02-04T09:06:08.758Z,77.77
2023-02-04T09:08:35.258Z,77.36
2023-02-04T09:11:01.978Z,77.41
2023-02-04T09:13:28.642Z,76.71
2023-02-04T09:15:55.256Z,75.40
2023-02-04T09:18:22.672Z,74.78
2023-02-04T09:20:49.363Z,74.07
2023-02-04T09:23:15.952Z,71.54
2023-02-04T09:25:43.297Z,71.00
2023-02-04T09:28:13.086Z,70.13
2023-02-04T09:30:39.985Z,71.32
2023-02-04T09:33:09.355Z,69.83
2023-02-04T09:35:36.067Z,70.67
2023-02-04T09:38:02.711Z,72.38
2023-02-04T09:40:30.280Z,71.89
2023-02-04T09:42:56.938Z,70.83
2023-02-04T09:45:28.248Z,70.81
2023-02-04T09:47:55.025Z,69.76
2023-02-04T09:50:22.222Z,70.75
2023-02-04T09:52:49.556Z,70.70
2023-02-04T09:55:16.459Z,70.26
2023-02-04T09:57:43.105Z,69.22
2023-02-04T10:00:19.937Z,70.63
2023-02-04T10:02:46.396Z,70.02
2023-02-04T10:08:40.881Z,69.10
2023-02-04T10:11:09.374Z,70.55
2023-02-04T10:13:41.891Z,70.01
2023-02-04T10:16:16.048Z,70.58
2023-02-04T10:18:42.557Z,71.20
2023-02-04T10:21:12.124Z,68.74
2023-02-04T10:23:38.593Z,69.61
2023-02-04T10:26:05.615Z,68.91
2023-02-04T10:28:35.526Z,67.71
2023-02-04T10:31:02.143Z,67.57
2023-02-04T10:33:28.737Z,66.94
2023-02-04T10:35:58.292Z,66.28
2023-02-04T10:38:24.874Z,66.62
2023-02-04T10:41:03.975Z,67.52
2023-02-04T10:43:30.482Z,67.45
2023-02-04T10:46:01.374Z,68.20
2023-02-04T10:48:30.155Z,66.75
2023-02-04T10:50:56.900Z,64.89
2023-02-04T10:53:42.230Z,68.67
2023-02-04T10:56:16.567Z,66.90
2023-02-04T10:58:43.229Z,66.49
2023-02-04T11:01:13.282Z,66.99
2023-02-04T11:03:40.519Z,65.26
2023-02-04T11:06:18.272Z,64.64
2023-02-04T11:08:44.938Z,64.17
2023-02-04T11:11:15.867Z,62.35
2023-02-04T11:13:51.640Z,62.45
2023-02-04T11:16:18.115Z,61.40
2023-02-04T11:18:46.445Z,60.99
2023-02-04T11:21:22.816Z,59.65
2023-02-04T11:23:49.309Z,60.16
2023-02-04T11:26:19.269Z,61.44
2023-02-04T11:28:50.113Z,60.90
2023-02-04T11:31:19.838Z,60.66
2023-02-04T11:33:46.371Z,60.61
2023-02-04T11:36:14.547Z,59.90
2023-02-04T11:38:44.741Z,61.54
2023-02-04T11:41:19.276Z,61.12
2023-02-04T11:43:45.720Z,61.55
2023-02-04T11:46:13.287Z,60.99
2023-02-04T11:48:39.793Z,61.42
2023-02-04T11:51:15.964Z,61.97
2023-02-04T11:53:42.576Z,62.71
2023-02-04T11:56:16.948Z,61.04
2023-02-04T11:58:43.432Z,61.57
2023-02-04T12:01:21.387Z,60.06
2023-02-04T12:03:51.866Z,60.22
2023-02-04T12:06:21.888Z,59.14
2023-02-04T12:08:48.618Z,58.42
2023-02-04T12:11:27.900Z,60.11
2023-02-04T12:13:54.841Z,57.98
2023-02-04T12:16:21.324Z,58.66
2023-02-04T12:18:47.939Z,58.09
2023-02-04T12:21:18.907Z,57.31
2023-02-04T12:23:45.484Z,57.38
2023-02-04T12:26:12.560Z,57.13
2023-02-04T12:28:39.115Z,57.46
2023-02-04T12:31:05.725Z,57.21
2023-02-04T12:33:32.273Z,56.91
2023-02-04T12:35:59.106Z,58.46
2023-02-04T12:38:25.625Z,56.73
2023-02-04T12:40:52.111Z,58.18
2023-02-04T12:43:18.667Z,57.61
2023-02-04T12:45:46.485Z,56.51
2023-02-04T12:48:14.208Z,56.96
2023-02-04T12:50:40.831Z,58.55
2023-02-04T12:53:07.360Z,59.94
2023-02-04T12:55:34.307Z,58.11
2023-02-04T12:58:01.189Z,59.99
2023-02-04T13:00:27.862Z,58.58
2023-02-04T13:02:59.283Z,57.84
2023-02-04T13:05:25.812Z,58.30
2023-02-04T13:07:52.315Z,58.90
2023-02-04T13:10:20.155Z,58.25
2023-02-04T13:12:46.851Z,58.88
2023-02-04T13:15:13.638Z,58.76
2023-02-04T13:17:40.214Z,58.34
2023-02-04T13:20:06.841Z,59.51
2023-02-04T13:22:33.394Z,58.53
2023-02-04T13:24:59.840Z,59.42
2023-02-04T13:27:42.853Z,60.17
2023-02-04T13:30:09.785Z,60.52
2023-02-04T13:32:36.234Z,60.71
2023-02-04T13:35:02.685Z,59.55
2023-02-04T13:37:29.182Z,58.97
2023-02-04T13:39:55.707Z,58.55
2023-02-04T13:42:22.167Z,57.83
2023-02-04T13:44:48.631Z,58.35
2023-02-04T13:47:15.164Z,58.37
2023-02-04T13:49:41.684Z,58.89
2023-02-04T13:52:08.155Z,59.24
2023-02-04T13:54:36.700Z,59.06
2023-02-04T13:57:09.214Z,58.91
2023-02-04T13:59:35.750Z,57.42
2023-02-04T14:02:02.295Z,57.72
2023-02-04T14:04:28.847Z,58.01
2023-02-04T14:06:56.586Z,59.10
2023-02-04T14:09:23.349Z,59.02
2023-02-04T14:11:49.876Z,59.47
2023-02-04T14:14:17.095Z,60.85
2023-02-04T14:16:43.615Z,60.78
2023-02-04T14:19:10.222Z,61.88
2023-02-04T14:21:36.690Z,62.53
2023-02-04T14:24:03.241Z,62.92
2023-02-04T14:26:29.727Z,63.69
2023-02-04T14:28:56.166Z,63.18
2023-02-04T14:31:22.734Z,64.73
2023-02-04T14:33:50.489Z,65.23
2023-02-04T14:36:17.021Z,65.66
2023-02-04T14:38:43.841Z,66.01
2023-02-04T14:41:11.500Z,66.36
2023-02-04T14:43:37.974Z,65.93
2023-02-04T14:46:05.536Z,65.05
2023-02-04T14:48:32.211Z,65.27
2023-02-04T14:50:58.673Z,64.94
2023-02-04T14:53:25.128Z,64.19
2023-02-04T14:55:51.552Z,65.20
2023-02-04T14:58:18.488Z,67.04
2023-02-04T15:00:44.995Z,72.37
2023-02-04T15:03:11.473Z,74.68
2023-02-04T15:05:37.993Z,76.15
2023-02-04T15:08:04.815Z,78.60
2023-02-04T15:10:31.723Z,79.91
2023-02-04T15:12:59.215Z,80.37
2023-02-04T15:15:25.650Z,80.82
2023-02-04T15:17:52.221Z,80.08
2023-02-04T15:20:18.755Z,80.98
2023-02-04T15:22:45.302Z,81.62
2023-02-04T15:25:12.719Z,81.48
2023-02-04T15:27:39.187Z,81.14
2023-02-04T15:30:05.758Z,81.55
2023-02-04T15:32:32.336Z,81.47
2023-02-04T15:34:58.795Z,80.72
2023-02-04T15:37:25.307Z,81.00
2023-02-04T15:39:51.816Z,80.57
2023-02-04T15:42:18.263Z,80.06
2023-02-04T15:44:44.731Z,79.44
2023-02-04T15:47:11.168Z,80.05
2023-02-04T15:49:37.817Z,78.75
2023-02-04T15:52:05.808Z,78.48
2023-02-04T15:54:35.370Z,78.29
2023-02-04T15:57:03.338Z,78.00
2023-02-04T15:59:29.988Z,78.30
2023-02-04T16:01:56.434Z,78.71
2023-02-04T16:04:23.031Z,78.33
2023-02-04T16:06:58.194Z,77.43
2023-02-04T16:09:25.584Z,76.30
2023-02-04T16:11:52.074Z,75.78
2023-02-04T16:14:18.707Z,76.37
2023-02-04T16:16:45.196Z,76.54
2023-02-04T16:19:11.714Z,75.16
2023-02-04T16:21:38.173Z,74.93
2023-02-04T16:24:04.833Z,74.71
2023-02-04T16:26:51.747Z,74.05
2023-02-04T16:29:18.259Z,73.53
2023-02-04T16:31:44.775Z,71.91
2023-02-04T16:34:11.372Z,71.23
2023-02-04T16:36:37.832Z,71.07
2023-02-04T16:39:04.337Z,71.83
2023-02-04T16:41:31.035Z,72.19
2023-02-04T16:43:58.260Z,70.79
2023-02-04T16:46:24.771Z,70.79
2023-02-04T16:48:51.226Z,71.48
2023-02-04T16:51:20.559Z,71.32
2023-02-04T16:53:47.272Z,71.54
2023-02-04T16:56:13.681Z,71.60
2023-02-04T16:58:40.229Z,71.39
2023-02-04T17:01:06.925Z,71.87
2023-02-04T17:03:34.423Z,71.43
2023-02-04T17:06:01.094Z,71.58
2023-02-04T17:08:28.312Z,71.99
2023-02-04T17:11:13.527Z,71.49
2023-02-04T17:13:40.042Z,70.97
2023-02-04T17:16:06.568Z,71.31
2023-02-04T17:18:33.130Z,71.30
2023-02-04T17:20:59.638Z,70.83
2023-02-04T17:23:26.936Z,70.81
2023-02-04T17:25:53.538Z,70.64
2023-02-04T17:28:20.135Z,70.10
2023-02-04T17:30:46.757Z,70.53
2023-02-04T17:33:13.331Z,70.51
2023-02-04T17:35:39.993Z,69.97
2023-02-04T17:38:06.571Z,71.04
2023-02-04T17:40:33.264Z,70.27
2023-02-04T17:42:59.721Z,69.24
2023-02-04T17:45:26.325Z,70.06
2023-02-04T17:47:52.761Z,70.04
2023-02-04T17:50:19.290Z,70.65
2023-02-04T17:52:45.933Z,70.22
2023-02-04T17:55:27.723Z,70.41
2023-02-04T17:57:54.875Z,70.99
2023-02-04T18:00:21.783Z,71.32
2023-02-04T18:02:49.733Z,70.00
2023-02-04T18:05:17.421Z,70.22
2023-02-04T18:07:46.035Z,69.51
2023-02-04T18:10:20.695Z,70.21
2023-02-04T18:12:47.165Z,70.20
2023-02-04T18:15:19.247Z,69.71
2023-02-04T18:17:45.752Z,69.68
2023-02-04T18:20:17.016Z,69.94
2023-02-04T18:22:43.440Z,69.36
2023-02-04T18:25:13.407Z,70.08
2023-02-04T18:27:39.895Z,70.20
2023-02-04T18:30:07.685Z,70.32
2023-02-04T18:32:38.083Z,70.44
2023-02-04T18:35:19.416Z,70.68
2023-02-04T18:37:46.548Z,70.53
2023-02-04T18:40:25.657Z,71.03
2023-02-04T18:42:55.550Z,70.37
2023-02-04T18:45:23.893Z,70.70
2023-02-04T18:47:51.778Z,70.46
2023-02-04T18:50:23.102Z,69.73
2023-02-04T18:52:49.875Z,69.56
2023-02-04T18:55:19.473Z,69.53
2023-02-04T18:57:45.967Z,68.93
2023-02-04T19:00:13.964Z,67.77
2023-02-04T19:03:15.783Z,69.10
2023-02-04T19:05:43.464Z,68.13
2023-02-04T19:08:29.832Z,66.92
2023-02-04T19:10:57.308Z,67.72
2023-02-04T19:13:40.948Z,68.37
2023-02-04T19:16:14.914Z,68.65
2023-02-04T19:18:44.757Z,68.37
2023-02-04T19:21:27.613Z,68.38
2023-02-04T19:24:14.170Z,68.57
2023-02-04T19:26:42.153Z,68.83
2023-02-04T19:29:30.223Z,68.29
2023-02-04T19:32:00.542Z,68.90
2023-02-04T19:34:28.302Z,69.01
2023-02-04T19:36:54.831Z,68.92
2023-02-04T19:39:29.789Z,69.23
2023-02-04T19:41:56.616Z,69.53
2023-02-04T19:44:35.523Z,69.01
2023-02-04T19:47:13.359Z,69.12
2023-02-04T19:49:41.735Z,69.39
2023-02-04T19:52:09.094Z,69.35
2023-02-04T19:54:36.784Z,69.57
2023-02-04T19:57:04.841Z,69.99
2023-02-04T19:59:35.602Z,70.39
2023-02-04T20:02:08.510Z,69.11
2023-02-04T20:04:35.954Z,69.28
2023-02-04T20:07:02.543Z,69.30
2023-02-04T20:09:30.993Z,69.07
2023-02-04T20:12:17.713Z,69.94
2023-02-04T20:14:54.449Z,69.20
2023-02-04T20:17:24.006Z,69.52
2023-02-04T20:19:52.485Z,69.60
2023-02-04T20:22:19.039Z,69.30
2023-02-04T20:24:46.195Z,68.99
2023-02-04T20:27:17.232Z,68.90
2023-02-04T20:29:43.698Z,69.46
2023-02-04T20:32:16.178Z,69.37
2023-02-04T20:34:42.603Z,68.13
2023-02-04T20:37:09.420Z,68.45
2023-02-04T20:39:37.122Z,68.40
2023-02-04T20:42:16.442Z,68.59
2023-02-04T20:44:43.018Z,69.16
2023-02-04T20:47:22.739Z,68.12
2023-02-04T20:49:54.161Z,68.64
2023-02-04T20:52:39.066Z,68.64
2023-02-04T20:55:20.680Z,68.73
2023-02-04T20:57:48.421Z,68.71
2023-02-04T21:00:15.733Z,67.60
2023-02-04T21:02:42.363Z,67.69
2023-02-04T21:05:22.104Z,67.45
2023-02-04T21:07:48.617Z,66.63
2023-02-04T21:10:15.223Z,67.15
2023-02-04T21:12:45.704Z,66.47
2023-02-04T21:15:12.242Z,67.03
2023-02-04T21:17:38.791Z,66.86
2023-02-04T21:20:06.527Z,66.84
2023-02-04T21:22:33.179Z,66.75
2023-02-04T21:24:59.607Z,67.23
2023-02-04T21:27:26.053Z,67.30
2023-02-04T21:29:52.515Z,67.09
2023-02-04T21:32:19.255Z,66.44
2023-02-04T21:34:45.785Z,65.58
2023-02-04T21:37:12.363Z,65.69
2023-02-04T21:39:38.873Z,64.53
2023-02-04T21:42:11.671Z,63.39
2023-02-04T21:44:41.167Z,64.38
2023-02-04T21:47:07.732Z,65.34
2023-02-04T21:49:34.227Z,65.43
2023-02-04T21:52:00.791Z,65.31
2023-02-04T21:54:27.376Z,65.98
2023-02-04T21:56:53.809Z,64.36
2023-02-04T21:59:20.575Z,64.10
2023-02-04T22:02:07.432Z,64.03
2023-02-04T22:04:33.870Z,64.04
2023-02-04T22:07:00.383Z,63.30
2023-02-04T22:09:26.817Z,63.10
2023-02-04T22:11:53.255Z,62.93
2023-02-04T22:14:20.146Z,62.40
2023-02-04T22:16:47.163Z,63.76
2023-02-04T22:19:13.810Z,63.25
2023-02-04T22:21:40.281Z,64.16
2023-02-04T22:24:06.775Z,64.46
2023-02-04T22:26:33.262Z,64.73
2023-02-04T22:28:59.734Z,65.03
2023-02-04T22:31:26.235Z,64.96
2023-02-04T22:33:55.143Z,64.73
2023-02-04T22:36:21.874Z,64.35
2023-02-04T22:38:48.409Z,64.41
2023-02-04T22:41:14.935Z,64.69
2023-02-04T22:43:41.545Z,64.33
2023-02-04T22:46:08.373Z,64.50
2023-02-04T22:48:35.137Z,64.22
2023-02-04T22:51:03.677Z,63.09
2023-02-04T22:53:30.776Z,63.65
2023-02-04T22:55:57.288Z,63.33
2023-02-04T22:58:23.879Z,63.32
2023-02-04T23:00:50.349Z,63.00
2023-02-04T23:03:16.895Z,63.87
2023-02-04T23:05:44.017Z,64.33
2023-02-04T23:08:10.640Z,63.91
2023-02-04T23:10:38.936Z,63.43
2023-02-04T23:13:05.573Z,64.34
2023-02-04T23:15:32.532Z,63.88
2023-02-04T23:18:00.119Z,63.55
2023-02-04T23:20:26.759Z,64.36
2023-02-04T23:22:54.464Z,64.29
2023-02-04T23:25:21.290Z,64.26
2023-02-04T23:27:48.192Z,64.93
2023-02-04T23:30:14.710Z,65.64
2023-02-04T23:32:41.326Z,64.89
2023-02-04T23:35:07.893Z,64.52
2023-02-04T23:37:35.040Z,64.84
2023-02-04T23:40:01.971Z,65.06
2023-02-04T23:42:29.818Z,63.87
2023-02-04T23:44:56.263Z,64.44
2023-02-04T23:47:22.723Z,62.94
2023-02-04T23:49:49.129Z,63.17
2023-02-04T23:52:15.618Z,63.72
2023-02-04T23:54:42.087Z,63.46
2023-02-04T23:57:08.943Z,62.93
2023-02-04T23:59:36.258Z,63.39
